Time;durP1;ratioP1;P1;durP2;ratioP2;P2;SDS_P1;SDS_P2;PMS_P1;PMS_P2;Temp;Humidity;BMP_temperature;BMP_pressure;BME280_temperature;BME280_humidity;BME280_pressure;Samples;Min_cycle;Max_cycle;Signal;HPM_P1;HPM_P2
2022/05/04 00:01:42;;;;;;;17.93;14.27;;;11.20;99.90;;;;;;5070846;28;20217;-52
2022/05/04 00:04:10;;;;;;;16.10;13.03;;;11.20;99.90;;;;;;5071358;28;20300;-56
2022/05/04 00:06:38;;;;;;;16.40;13.90;;;11.10;99.90;;;;;;5071334;28;20323;-52
2022/05/04 00:09:06;;;;;;;20.63;13.90;;;11.10;99.90;;;;;;5071196;28;20205;-52
2022/05/04 00:11:36;;;;;;;17.47;13.73;;;11.10;99.90;;;;;;5064844;28;20213;-52
2022/05/04 00:14:04;;;;;;;15.67;13.33;;;11.10;99.90;;;;;;5071036;28;20214;-52
2022/05/04 00:16:32;;;;;;;20.03;14.30;;;11.10;99.90;;;;;;5071540;28;20221;-52
2022/05/04 00:19:00;;;;;;;18.43;13.57;;;11.20;99.90;;;;;;5070914;28;20635;-52
2022/05/04 00:21:28;;;;;;;18.33;13.40;;;11.10;99.90;;;;;;5070936;28;20211;-52
2022/05/04 00:23:56;;;;;;;16.83;12.90;;;11.10;99.90;;;;;;5070417;28;20201;-52
2022/05/04 00:26:25;;;;;;;17.67;12.97;;;11.10;99.90;;;;;;5070152;28;20224;-52
2022/05/04 00:28:54;;;;;;;15.13;12.40;;;11.00;99.90;;;;;;5070089;28;20209;-51
2022/05/04 00:31:22;;;;;;;18.43;13.10;;;11.00;99.90;;;;;;5071041;28;20773;-52
2022/05/04 00:33:50;;;;;;;16.63;12.80;;;11.00;99.90;;;;;;5070721;28;20221;-52
2022/05/04 00:36:18;;;;;;;15.43;12.57;;;11.00;99.90;;;;;;5070676;28;20320;-52
2022/05/04 00:38:46;;;;;;;16.87;13.20;;;11.00;99.90;;;;;;5070844;28;20270;-52
2022/05/04 00:41:15;;;;;;;19.33;13.47;;;11.00;99.90;;;;;;5071688;28;20979;-52
2022/05/04 00:43:51;;;;;;;19.53;13.20;;;10.90;99.90;;;;;;5070816;28;20633;-52
2022/05/04 00:46:21;;;;;;;17.27;13.70;;;10.80;99.90;;;;;;5070793;28;20710;-52
2022/05/04 00:48:49;;;;;;;17.73;14.37;;;10.80;99.90;;;;;;5070667;28;20235;-52
2022/05/04 00:51:18;;;;;;;19.20;14.20;;;10.70;99.90;;;;;;5070852;28;20204;-52
2022/05/04 00:53:46;;;;;;;17.10;13.67;;;10.50;99.90;;;;;;5070233;28;20643;-52
2022/05/04 00:56:15;;;;;;;18.03;13.47;;;10.50;99.90;;;;;;5071073;28;20241;-52
2022/05/04 00:58:54;;;;;;;17.53;13.57;;;10.40;99.90;;;;;;5070783;28;20217;-52
2022/05/04 01:01:25;;;;;;;17.27;13.63;;;10.40;99.90;;;;;;5070801;28;20251;-52
2022/05/04 01:03:53;;;;;;;17.60;13.33;;;10.40;99.90;;;;;;5070404;28;20266;-52
2022/05/04 01:06:22;;;;;;;18.03;13.50;;;10.40;99.90;;;;;;5070842;28;20259;-52
2022/05/04 01:08:52;;;;;;;17.53;13.40;;;10.40;99.90;;;;;;5070747;28;20254;-52
2022/05/04 01:11:20;;;;;;;19.83;13.27;;;10.30;99.90;;;;;;5070703;28;20204;-52
2022/05/04 01:13:59;;;;;;;19.70;13.13;;;10.30;99.90;;;;;;5069895;28;20770;-52
2022/05/04 01:16:29;;;;;;;18.13;13.37;;;10.30;99.90;;;;;;5070475;28;20648;-52
2022/05/04 01:18:57;;;;;;;18.63;13.60;;;10.30;99.90;;;;;;5070203;28;20207;-52
2022/05/04 01:21:25;;;;;;;16.60;13.73;;;10.30;99.90;;;;;;5069796;28;20213;-52
2022/05/04 01:23:57;;;;;;;19.80;13.77;;;10.30;99.90;;;;;;5069603;28;20624;-52
2022/05/04 01:26:25;;;;;;;16.40;14.30;;;10.30;99.90;;;;;;5069996;28;20282;-53
2022/05/04 01:28:53;;;;;;;21.80;15.43;;;10.30;99.90;;;;;;5070546;28;20723;-52
2022/05/04 01:31:22;;;;;;;18.83;15.10;;;10.30;99.90;;;;;;5070242;28;20204;-52
2022/05/04 01:33:50;;;;;;;20.00;15.13;;;10.30;99.90;;;;;;5069944;28;20230;-52
2022/05/04 01:36:18;;;;;;;20.07;15.37;;;10.20;99.90;;;;;;5070740;28;20228;-52
2022/05/04 01:38:47;;;;;;;19.37;14.37;;;10.20;99.90;;;;;;5070051;28;20205;-52
2022/05/04 01:44:01;;;;;;;19.47;13.50;;;10.20;99.90;;;;;;5069398;28;20669;-52
2022/05/04 01:46:30;;;;;;;18.80;13.87;;;10.20;99.90;;;;;;5070186;28;20257;-52
2022/05/04 01:48:58;;;;;;;18.93;13.60;;;10.20;99.90;;;;;;5070326;28;20206;-52
2022/05/04 01:51:26;;;;;;;17.53;14.03;;;10.10;99.90;;;;;;5070540;28;20263;-52
2022/05/04 01:53:54;;;;;;;20.50;15.13;;;10.10;99.90;;;;;;5069589;28;20755;-52
2022/05/04 01:56:24;;;;;;;22.17;14.63;;;10.00;99.90;;;;;;5070120;28;20278;-52
2022/05/04 01:58:52;;;;;;;18.57;14.70;;;9.90;99.90;;;;;;5070444;28;20212;-52
2022/05/04 02:01:20;;;;;;;19.63;15.33;;;9.90;99.90;;;;;;5071502;28;20205;-52
2022/05/04 02:03:49;;;;;;;19.90;15.40;;;9.90;99.90;;;;;;5073107;28;20204;-52
2022/05/04 02:06:17;;;;;;;19.63;14.40;;;9.80;99.90;;;;;;5073153;28;20282;-52
2022/05/04 02:08:46;;;;;;;19.70;15.30;;;9.80;99.90;;;;;;5073462;28;20247;-52
2022/05/04 02:11:14;;;;;;;21.63;14.97;;;9.80;99.90;;;;;;5073453;28;20234;-52
2022/05/04 02:13:43;;;;;;;17.17;14.03;;;9.80;99.90;;;;;;5073066;28;20270;-52
2022/05/04 02:16:11;;;;;;;19.70;14.17;;;9.90;99.90;;;;;;5073523;28;20282;-52
2022/05/04 02:18:40;;;;;;;17.83;13.50;;;9.90;99.90;;;;;;5073421;28;20742;-52
2022/05/04 02:21:09;;;;;;;19.97;13.60;;;9.90;99.90;;;;;;5072821;28;20628;-52
2022/05/04 02:23:37;;;;;;;17.43;13.53;;;9.90;99.90;;;;;;5072900;28;20638;-52
2022/05/04 02:26:05;;;;;;;18.10;14.57;;;10.00;99.90;;;;;;5073165;28;20251;-52
2022/05/04 02:28:33;;;;;;;19.43;14.57;;;10.00;99.90;;;;;;5071708;28;20201;-52
2022/05/04 02:31:03;;;;;;;17.93;14.70;;;10.00;99.90;;;;;;5073762;28;20624;-52
2022/05/04 02:33:31;;;;;;;17.03;14.60;;;10.00;99.90;;;;;;5072500;28;20274;-52
2022/05/04 02:38:44;;;;;;;19.17;15.13;;;9.90;99.90;;;;;;5073195;28;20205;-52
2022/05/04 02:41:12;;;;;;;21.57;14.83;;;10.00;99.90;;;;;;5073189;28;20200;-52
2022/05/04 02:43:40;;;;;;;20.93;14.73;;;9.90;99.90;;;;;;5072423;28;20201;-52
2022/05/04 02:46:17;;;;;;;19.53;14.60;;;9.90;99.90;;;;;;5072922;28;20221;-52
2022/05/04 02:48:46;;;;;;;22.53;14.33;;;9.90;99.90;;;;;;5072323;28;20216;-52
2022/05/04 02:51:16;;;;;;;18.37;14.63;;;9.90;99.90;;;;;;5072942;28;20209;-52
2022/05/04 02:53:44;;;;;;;21.67;15.03;;;10.00;99.90;;;;;;5072517;28;20236;-51
2022/05/04 02:56:15;;;;;;;18.63;13.63;;;10.00;99.90;;;;;;5072550;28;20217;-52
2022/05/04 02:58:43;;;;;;;17.77;13.67;;;10.00;99.90;;;;;;5073116;28;20208;-52
2022/05/04 03:04:02;;;;;;;18.90;14.87;;;10.10;99.90;;;;;;5072586;28;20208;-51
2022/05/04 03:06:30;;;;;;;20.60;14.47;;;10.10;99.90;;;;;;5074234;28;20245;-52
2022/05/04 03:08:58;;;;;;;19.63;14.73;;;10.10;99.90;;;;;;5075293;28;20204;-52
2022/05/04 03:14:13;;;;;;;19.30;14.37;;;10.00;99.90;;;;;;5071812;28;20235;-52
2022/05/04 03:16:41;;;;;;;17.93;14.07;;;10.00;99.90;;;;;;5072192;28;20282;-52
2022/05/04 03:19:10;;;;;;;19.10;13.87;;;9.90;99.90;;;;;;5072867;28;20283;-51
2022/05/04 03:21:38;;;;;;;20.37;14.70;;;9.90;99.90;;;;;;5072788;28;20671;-52
2022/05/04 03:24:07;;;;;;;19.67;14.77;;;9.90;99.90;;;;;;5071457;28;20208;-52
2022/05/04 03:26:36;;;;;;;20.13;15.00;;;10.00;99.90;;;;;;5072397;28;20278;-52
2022/05/04 03:29:04;;;;;;;22.87;15.20;;;10.00;99.90;;;;;;5071159;28;20279;-52
2022/05/04 03:31:32;;;;;;;18.53;14.37;;;10.00;99.90;;;;;;5072224;28;20205;-51
2022/05/04 03:34:01;;;;;;;20.57;14.90;;;9.90;99.90;;;;;;5071754;28;20224;-52
2022/05/04 03:36:31;;;;;;;21.37;14.93;;;10.00;99.90;;;;;;5071971;28;20247;-51
2022/05/04 03:39:01;;;;;;;22.60;13.87;;;10.00;99.90;;;;;;5071830;28;20677;-51
2022/05/04 03:41:29;;;;;;;18.40;13.83;;;10.00;99.90;;;;;;5072129;28;20696;-52
2022/05/04 03:43:57;;;;;;;16.83;13.87;;;10.00;99.90;;;;;;5071450;28;20205;-52
2022/05/04 03:46:27;;;;;;;19.23;14.37;;;10.00;99.90;;;;;;5072195;28;20267;-51
2022/05/04 03:48:58;;;;;;;17.33;12.63;;;10.10;99.90;;;;;;5071593;28;20254;-52
2022/05/04 03:51:26;;;;;;;17.93;13.07;;;10.10;99.90;;;;;;5071947;28;20212;-52
2022/05/04 03:53:56;;;;;;;17.93;12.90;;;10.00;99.90;;;;;;5071367;28;20214;-52
2022/05/04 03:56:24;;;;;;;18.93;13.57;;;10.10;99.90;;;;;;5070495;28;20290;-51
2022/05/04 03:58:52;;;;;;;17.70;13.87;;;10.20;99.90;;;;;;5071689;28;20205;-52
2022/05/04 04:01:20;;;;;;;16.87;13.13;;;10.20;99.90;;;;;;5071582;28;20619;-52
2022/05/04 04:03:49;;;;;;;17.17;13.80;;;10.20;99.90;;;;;;5071301;28;20212;-52
2022/05/04 04:06:17;;;;;;;19.37;14.20;;;10.30;99.90;;;;;;5071396;28;20233;-52
2022/05/04 04:08:49;;;;;;;20.33;15.47;;;10.30;99.90;;;;;;5071618;28;20217;-52
2022/05/04 04:11:19;;;;;;;20.13;14.73;;;10.20;99.90;;;;;;5071773;28;20212;-52
2022/05/04 04:13:47;;;;;;;19.30;14.90;;;10.20;99.90;;;;;;5070089;28;20266;-52
2022/05/04 04:16:17;;;;;;;19.50;14.93;;;10.20;99.90;;;;;;5071133;28;20714;-52
2022/05/04 04:18:45;;;;;;;20.90;15.53;;;10.20;99.90;;;;;;5071160;28;20216;-52
2022/05/04 04:23:59;;;;;;;26.00;16.47;;;10.30;99.90;;;;;;5070096;28;20258;-52
2022/05/04 04:26:29;;;;;;;20.43;15.53;;;10.30;99.90;;;;;;5071110;28;20620;-51
2022/05/04 04:28:57;;;;;;;21.57;16.30;;;10.30;99.90;;;;;;5069794;28;20205;-52
2022/05/04 04:31:25;;;;;;;22.13;16.17;;;10.30;99.90;;;;;;5071511;28;20205;-52
2022/05/04 04:33:53;;;;;;;18.57;14.40;;;10.30;99.90;;;;;;5069534;28;20205;-52
2022/05/04 04:36:21;;;;;;;22.77;16.20;;;10.40;99.90;;;;;;5071164;28;20225;-52
2022/05/04 04:38:49;;;;;;;19.47;15.40;;;10.40;99.90;;;;;;5071227;28;20217;-52
2022/05/04 04:41:17;;;;;;;21.07;16.10;;;10.40;99.90;;;;;;5070996;28;20259;-52
2022/05/04 04:43:47;;;;;;;20.47;16.23;;;10.30;99.90;;;;;;5070857;28;20208;-53
2022/05/04 04:46:15;;;;;;;26.27;17.50;;;10.40;99.90;;;;;;5056638;28;20217;-53
2022/05/04 04:48:43;;;;;;;24.03;16.20;;;10.40;99.90;;;;;;5050636;28;20632;-53
2022/05/04 04:51:11;;;;;;;23.77;17.30;;;10.40;99.90;;;;;;5050653;28;20854;-53
2022/05/04 04:53:39;;;;;;;21.83;16.70;;;10.50;99.90;;;;;;5050480;28;20279;-52
2022/05/04 04:56:08;;;;;;;21.73;16.50;;;10.50;99.90;;;;;;5055468;28;20221;-53
2022/05/04 04:58:36;;;;;;;21.30;15.47;;;10.50;99.90;;;;;;5070937;28;20258;-52
2022/05/04 05:01:05;;;;;;;20.87;15.93;;;10.60;99.90;;;;;;5070973;28;20251;-52
2022/05/04 05:03:33;;;;;;;19.43;15.50;;;10.60;99.90;;;;;;5069943;28;20806;-52
2022/05/04 05:06:02;;;;;;;33.60;19.17;;;10.70;99.90;;;;;;5070805;28;20581;-52
2022/05/04 05:08:30;;;;;;;16.60;11.90;;;10.80;99.90;;;;;;5070409;28;20238;-52
2022/05/04 05:10:58;;;;;;;19.10;13.03;;;11.10;99.90;;;;;;5070691;28;20669;-52
2022/05/04 05:13:26;;;;;;;18.03;11.47;;;11.30;99.90;;;;;;5070245;28;20216;-52
2022/05/04 05:16:08;;;;;;;19.37;12.30;;;11.90;99.90;;;;;;5070400;28;20224;-52
2022/05/04 05:18:38;;;;;;;18.00;11.57;;;12.00;99.90;;;;;;5070541;28;20228;-52
2022/05/04 05:21:07;;;;;;;20.60;13.07;;;12.00;99.90;;;;;;5070962;28;20205;-52
2022/05/04 05:23:35;;;;;;;18.93;13.43;;;12.00;99.90;;;;;;5059507;28;20212;-52
2022/05/04 05:26:03;;;;;;;18.47;15.20;;;12.10;99.90;;;;;;5065137;28;20225;-52
2022/05/04 05:28:31;;;;;;;19.43;15.03;;;12.20;99.90;;;;;;5070206;28;20270;-52
2022/05/04 05:30:59;;;;;;;19.77;15.43;;;12.10;99.90;;;;;;5070407;28;20731;-52
2022/05/04 05:33:27;;;;;;;17.33;14.20;;;11.90;99.90;;;;;;5069932;28;20670;-53
2022/05/04 05:35:57;;;;;;;22.23;14.37;;;12.20;99.90;;;;;;5071412;28;20221;-52
2022/05/04 05:38:27;;;;;;;20.10;14.70;;;12.70;99.90;;;;;;5074515;28;20204;-52
2022/05/04 05:40:55;;;;;;;21.10;14.57;;;13.10;99.90;;;;;;5074437;28;20189;-52
2022/05/04 05:43:23;;;;;;;17.97;14.60;;;13.20;99.90;;;;;;5073584;28;20251;-53
2022/05/04 05:45:52;;;;;;;21.20;13.87;;;13.30;99.90;;;;;;5073267;28;20658;-53
2022/05/04 05:48:20;;;;;;;17.77;13.93;;;13.30;99.90;;;;;;5074079;28;20732;-52
2022/05/04 05:50:48;;;;;;;19.73;13.33;;;13.30;99.90;;;;;;5074189;28;20212;-52
2022/05/04 05:53:19;;;;;;;16.97;13.73;;;13.20;99.90;;;;;;5071972;28;20255;-52
2022/05/04 05:55:47;;;;;;;19.53;12.23;;;13.30;99.90;;;;;;5073874;28;20240;-52
2022/05/04 05:58:15;;;;;;;14.30;11.50;;;13.20;99.90;;;;;;5073759;28;20205;-52
2022/05/04 06:00:43;;;;;;;14.90;12.43;;;13.20;99.90;;;;;;5074058;28;20201;-52
2022/05/04 06:03:13;;;;;;;16.73;11.87;;;13.40;99.90;;;;;;5073459;28;20213;-52
2022/05/04 06:05:41;;;;;;;16.70;12.80;;;13.50;99.90;;;;;;5073855;28;20644;-52
2022/05/04 06:08:10;;;;;;;13.60;11.37;;;13.50;99.90;;;;;;5073687;28;20209;-52
2022/05/04 06:10:40;;;;;;;13.57;10.63;;;13.50;99.90;;;;;;5073779;28;20259;-52
2022/05/04 06:13:08;;;;;;;11.93;8.83;;;13.50;99.90;;;;;;5073207;28;20278;-52
2022/05/04 06:15:36;;;;;;;12.97;8.73;;;13.50;99.90;;;;;;5073768;28;20225;-52
2022/05/04 06:18:05;;;;;;;14.77;9.17;;;13.70;99.90;;;;;;5074047;28;20664;-52
2022/05/04 06:20:33;;;;;;;10.80;8.80;;;13.80;99.90;;;;;;5073309;28;20223;-52
2022/05/04 06:23:01;;;;;;;13.23;9.37;;;14.10;99.90;;;;;;5072529;28;20666;-52
2022/05/04 06:25:29;;;;;;;13.17;8.70;;;14.60;99.90;;;;;;5073359;28;20193;-52
2022/05/04 06:27:59;;;;;;;12.35;8.82;;;15.60;99.90;;;;;;5073548;28;20635;-52
2022/05/04 06:35:58;;;;;;;7.95;7.10;;;15.80;99.90;;;;;;5073316;28;20312;-52
2022/05/04 06:38:27;;;;;;;9.95;7.75;;;15.60;99.90;;;;;;5073411;28;20204;-52
2022/05/04 06:40:55;;;;;;;10.10;7.93;;;15.50;99.90;;;;;;5073228;28;20209;-52
2022/05/04 06:43:25;;;;;;;10.73;7.45;;;15.30;99.90;;;;;;5072657;28;20205;-52
2022/05/04 06:45:53;;;;;;;11.07;7.57;;;15.30;99.90;;;;;;5072892;28;20198;-52
2022/05/04 06:48:21;;;;;;;8.55;6.60;;;15.40;99.90;;;;;;5073352;28;20236;-52
2022/05/04 06:50:50;;;;;;;8.65;7.65;;;15.50;99.90;;;;;;5073475;28;20205;-52
2022/05/04 06:53:18;;;;;;;10.30;7.50;;;15.70;99.90;;;;;;5072400;28;20212;-52
2022/05/04 06:55:46;;;;;;;9.48;7.18;;;16.40;99.90;;;;;;5072612;28;20274;-52
2022/05/04 06:58:14;;;;;;;10.10;7.22;;;16.70;99.90;;;;;;5072979;28;20350;-51
2022/05/04 07:00:44;;;;;;;9.68;6.88;;;17.00;99.90;;;;;;5072866;28;20209;-52
2022/05/04 07:03:12;;;;;;;8.52;7.57;;;17.40;99.90;;;;;;5072105;28;20267;-53
2022/05/04 07:05:40;;;;;;;10.98;7.53;;;17.60;99.90;;;;;;5072684;28;20674;-53
2022/05/04 07:08:09;;;;;;;9.90;7.80;;;17.90;99.90;;;;;;5072765;28;20212;-53
2022/05/04 07:10:37;;;;;;;10.77;7.43;;;17.60;99.90;;;;;;5072825;28;20208;-53
2022/05/04 07:13:06;;;;;;;8.70;7.53;;;17.40;99.90;;;;;;5072069;28;20233;-53
2022/05/04 07:15:34;;;;;;;9.43;7.28;;;17.30;99.90;;;;;;5072966;28;20205;-52
2022/05/04 07:18:05;;;;;;;10.73;8.65;;;17.10;99.90;;;;;;5072980;28;20314;-53
2022/05/04 07:20:33;;;;;;;13.05;10.00;;;17.20;99.90;;;;;;5072740;28;20200;-52
2022/05/04 07:23:02;;;;;;;11.63;10.10;;;17.20;99.90;;;;;;5072035;28;20254;-53
2022/05/04 07:25:30;;;;;;;15.75;10.05;;;17.20;99.90;;;;;;5072671;28;20208;-53
2022/05/04 07:27:59;;;;;;;14.73;9.93;;;17.20;99.90;;;;;;5071279;28;20294;-53
2022/05/04 07:30:27;;;;;;;16.65;10.35;;;17.20;99.90;;;;;;5072459;28;20254;-53
2022/05/04 07:32:57;;;;;;;14.32;9.55;;;17.30;99.90;;;;;;5072013;28;20294;-53
2022/05/04 07:35:26;;;;;;;11.98;9.38;;;17.30;99.90;;;;;;5072098;28;20234;-52
2022/05/04 07:37:55;;;;;;;11.73;9.45;;;17.20;99.90;;;;;;5072363;28;20225;-53
2022/05/04 07:43:08;;;;;;;13.43;9.55;;;17.10;99.90;;;;;;5071910;28;20219;-53
2022/05/04 07:45:36;;;;;;;15.00;10.07;;;17.30;99.90;;;;;;5072100;28;20224;-53
2022/05/04 07:48:05;;;;;;;15.88;9.85;;;17.40;99.90;;;;;;5071952;28;20286;-52
2022/05/04 07:50:34;;;;;;;15.70;10.15;;;17.30;99.90;;;;;;5071943;28;20678;-52
2022/05/04 07:53:03;;;;;;;14.13;9.45;;;17.20;99.90;;;;;;5071114;28;20255;-52
2022/05/04 07:55:31;;;;;;;11.82;9.00;;;17.00;99.90;;;;;;5071996;28;20255;-52
2022/05/04 07:57:59;;;;;;;11.68;9.13;;;17.10;99.90;;;;;;5071654;28;20231;-52
2022/05/04 08:06:01;;;;;;;12.77;9.57;;;16.80;99.90;;;;;;5071715;28;20217;-52
2022/05/04 08:08:29;;;;;;;12.40;8.73;;;16.70;99.90;;;;;;5071223;28;20201;-52
2022/05/04 08:11:03;;;;;;;18.80;9.90;;;16.50;99.90;;;;;;5071766;28;20248;-52
2022/05/04 08:13:32;;;;;;;20.70;10.35;;;16.50;99.90;;;;;;5071125;28;20216;-52
2022/05/04 08:16:00;;;;;;;14.30;9.30;;;16.40;99.90;;;;;;5071800;28;20208;-52
2022/05/04 08:18:28;;;;;;;11.50;9.23;;;16.20;99.90;;;;;;5071603;28;20575;-52
2022/05/04 08:20:56;;;;;;;15.93;9.48;;;16.10;99.90;;;;;;5071868;28;20213;-52
2022/05/04 08:23:26;;;;;;;15.93;9.40;;;16.00;99.90;;;;;;5070763;28;20565;-53
2022/05/04 08:25:55;;;;;;;11.82;9.07;;;16.00;99.90;;;;;;5071413;28;20209;-52
2022/05/04 08:28:23;;;;;;;12.57;9.10;;;16.00;99.90;;;;;;5070413;28;20209;-53
2022/05/04 08:30:51;;;;;;;12.80;9.60;;;15.90;99.90;;;;;;5071305;28;20352;-52
2022/05/04 08:33:20;;;;;;;12.20;9.60;;;15.80;99.90;;;;;;5070543;28;20213;-52
2022/05/04 08:35:48;;;;;;;12.57;9.73;;;15.60;99.90;;;;;;5070954;28;20278;-52
2022/05/04 08:38:16;;;;;;;13.43;9.38;;;15.60;99.90;;;;;;5070992;28;20221;-52
2022/05/04 08:40:46;;;;;;;12.05;9.77;;;15.50;99.90;;;;;;5071134;28;20204;-52
2022/05/04 08:43:16;;;;;;;14.32;9.88;;;15.40;99.90;;;;;;5070525;28;20216;-52
2022/05/04 08:45:45;;;;;;;13.75;9.32;;;15.40;99.90;;;;;;5070938;28;20201;-53
2022/05/04 08:48:14;;;;;;;16.38;9.57;;;15.30;99.90;;;;;;5071291;28;20216;-52
2022/05/04 08:50:42;;;;;;;15.57;9.90;;;15.40;99.90;;;;;;5070717;28;20670;-52
2022/05/04 08:53:10;;;;;;;14.77;9.65;;;15.30;99.90;;;;;;5069812;28;20625;-52
2022/05/04 08:55:39;;;;;;;11.95;9.52;;;15.20;99.90;;;;;;5070940;28;20274;-52
2022/05/04 08:58:09;;;;;;;37.78;15.75;;;15.20;99.90;;;;;;5070915;28;20220;-52
2022/05/04 09:00:37;;;;;;;54.63;18.63;;;15.20;99.90;;;;;;5071098;28;20258;-52
2022/05/04 09:03:06;;;;;;;18.17;12.07;;;15.30;99.90;;;;;;5070365;28;20220;-52
2022/05/04 09:05:40;;;;;;;13.23;10.90;;;15.40;99.90;;;;;;5070669;28;20217;-52
2022/05/04 09:08:09;;;;;;;14.57;11.80;;;15.50;99.90;;;;;;5070702;28;20582;-51
2022/05/04 09:10:44;;;;;;;19.00;11.20;;;15.50;99.90;;;;;;5051726;28;20202;-52
2022/05/04 09:13:13;;;;;;;19.83;11.23;;;15.40;99.90;;;;;;5054901;28;20189;-51
2022/05/04 09:15:41;;;;;;;16.50;11.40;;;15.30;99.90;;;;;;5059609;28;20207;-52
2022/05/04 09:18:16;;;;;;;15.52;11.13;;;15.30;99.90;;;;;;5075204;28;20582;-52
2022/05/04 09:20:55;;;;;;;12.83;10.30;;;15.30;99.90;;;;;;5068169;28;20201;-52
2022/05/04 09:23:25;;;;;;;12.25;10.70;;;15.20;99.90;;;;;;5059509;28;20205;-51
2022/05/04 09:25:54;;;;;;;14.90;10.30;;;15.20;99.90;;;;;;5063872;28;20209;-52
2022/05/04 09:28:26;;;;;;;13.88;10.48;;;15.20;99.90;;;;;;5075047;28;20540;-50
2022/05/04 09:30:56;;;;;;;15.77;11.00;;;15.20;99.90;;;;;;5074191;28;20311;-52
2022/05/04 09:33:27;;;;;;;18.08;11.38;;;15.20;99.90;;;;;;5074605;28;20220;-52
2022/05/04 09:35:56;;;;;;;14.27;10.65;;;15.20;99.90;;;;;;5074541;28;20262;-52
2022/05/04 09:46:51;;;;;;;13.35;10.50;;;15.40;99.90;;;;;;5073944;28;20639;-52
2022/05/04 09:49:20;;;;;;;14.05;10.65;;;15.50;99.90;;;;;;5074587;28;20202;-52
2022/05/04 09:51:51;;;;;;;15.27;10.60;;;15.50;99.90;;;;;;5058630;28;20209;-53
2022/05/04 09:54:22;;;;;;;14.45;11.00;;;15.50;99.90;;;;;;5054512;28;20639;-52
2022/05/04 09:56:52;;;;;;;15.07;11.23;;;15.40;99.90;;;;;;5064760;28;20228;-51
2022/05/04 09:59:23;;;;;;;13.37;11.13;;;15.40;99.90;;;;;;5073742;28;20193;-51
2022/05/04 10:01:52;;;;;;;12.80;11.00;;;15.40;99.90;;;;;;5073164;28;20209;-52
2022/05/04 10:04:21;;;;;;;14.18;10.98;;;15.50;99.90;;;;;;5073224;28;20205;-52
2022/05/04 10:06:49;;;;;;;13.30;10.63;;;15.50;99.90;;;;;;5073245;28;20236;-52
2022/05/04 10:09:18;;;;;;;13.75;11.43;;;15.60;99.90;;;;;;5073948;28;20255;-52
2022/05/04 10:11:47;;;;;;;16.00;11.90;;;15.70;99.90;;;;;;5073461;28;20201;-52
2022/05/04 10:14:16;;;;;;;13.35;11.60;;;15.90;99.90;;;;;;5074116;28;20209;-51
2022/05/04 10:16:55;;;;;;;18.35;12.25;;;15.90;99.90;;;;;;5073059;28;20221;-52
2022/05/04 10:19:28;;;;;;;16.08;12.13;;;16.10;99.90;;;;;;5073258;28;20212;-52
2022/05/04 10:22:01;;;;;;;15.70;12.43;;;16.20;99.90;;;;;;5072842;28;20209;-52
2022/05/04 10:24:35;;;;;;;16.23;11.52;;;16.30;99.90;;;;;;5073810;28;20208;-52
2022/05/04 10:27:17;;;;;;;13.70;11.00;;;16.60;99.90;;;;;;5073331;28;20229;-52
2022/05/04 10:32:39;;;;;;;16.02;11.32;;;17.30;99.90;;;;;;5052046;28;20578;-52
2022/05/04 10:35:14;;;;;;;15.18;11.30;;;17.50;99.90;;;;;;5053424;28;20699;-52
2022/05/04 10:37:54;;;;;;;14.77;11.35;;;17.60;99.90;;;;;;5053035;28;20275;-53
2022/05/04 10:40:26;;;;;;;16.60;11.70;;;17.40;99.90;;;;;;5052972;28;20201;-52
2022/05/04 10:42:56;;;;;;;14.48;11.27;;;17.40;99.90;;;;;;5052483;28;20539;-52
2022/05/04 10:45:29;;;;;;;12.93;11.45;;;17.50;99.90;;;;;;5060127;28;20186;-53
2022/05/04 10:48:22;;;;;;;11.60;9.95;;;17.70;99.90;;;;;;5072019;28;20779;-52
2022/05/04 10:51:00;;;;;;;14.07;11.10;;;18.00;99.90;;;;;;5072654;28;20208;-52
2022/05/04 10:53:41;;;;;;;12.52;10.18;;;18.20;99.90;;;;;;5072055;28;20211;-53
2022/05/04 10:56:12;;;;;;;11.57;10.23;;;18.40;99.90;;;;;;5072661;28;20262;-52
2022/05/04 10:58:44;;;;;;;13.15;9.73;;;18.50;99.90;;;;;;5072023;28;20236;-52
2022/05/04 11:01:15;;;;;;;12.38;10.23;;;18.60;99.90;;;;;;5071969;28;20709;-52
2022/05/04 11:03:58;;;;;;;13.65;10.43;;;18.60;99.90;;;;;;5072161;28;20280;-52
2022/05/04 11:06:28;;;;;;;11.45;10.05;;;18.60;99.90;;;;;;5072348;28;20290;-52
2022/05/04 11:08:59;;;;;;;11.85;10.18;;;18.70;99.90;;;;;;5072773;28;20190;-52
2022/05/04 11:11:28;;;;;;;13.20;10.10;;;18.80;99.90;;;;;;5072079;28;20615;-52
2022/05/04 11:13:56;;;;;;;12.35;10.25;;;18.80;99.90;;;;;;5072038;28;20682;-52
2022/05/04 11:16:26;;;;;;;15.07;11.15;;;18.80;99.90;;;;;;5070971;28;20274;-52
2022/05/04 11:18:56;;;;;;;12.27;10.35;;;18.90;99.90;;;;;;5072079;28;20209;-52
2022/05/04 11:21:24;;;;;;;19.92;11.82;;;18.80;99.90;;;;;;5072096;28;20235;-52
2022/05/04 11:23:56;;;;;;;13.68;10.90;;;18.80;99.90;;;;;;5071825;28;20205;-52
2022/05/04 11:26:25;;;;;;;14.32;11.50;;;18.60;99.90;;;;;;5072023;28;20240;-52
2022/05/04 11:28:55;;;;;;;15.57;11.27;;;18.50;99.90;;;;;;5071607;28;20261;-51
2022/05/04 11:31:23;;;;;;;13.23;10.93;;;18.50;99.90;;;;;;5072338;28;20205;-52
2022/05/04 11:33:51;;;;;;;12.82;11.13;;;18.50;99.90;;;;;;5071015;28;20205;-51
2022/05/04 11:36:22;;;;;;;12.27;10.90;;;18.50;99.90;;;;;;5072421;28;20224;-52
2022/05/04 11:38:51;;;;;;;15.80;11.60;;;18.40;99.90;;;;;;5071929;28;20225;-52
2022/05/04 11:41:20;;;;;;;12.00;10.57;;;18.40;99.90;;;;;;5072547;28;20209;-52
2022/05/04 11:43:50;;;;;;;11.98;10.77;;;18.40;99.90;;;;;;5071035;28;20212;-52
2022/05/04 11:46:18;;;;;;;12.40;11.10;;;18.40;99.90;;;;;;5072114;28;20228;-52
2022/05/04 11:48:47;;;;;;;14.77;11.18;;;18.60;99.90;;;;;;5072117;28;20205;-52
2022/05/04 11:51:17;;;;;;;12.63;11.18;;;18.80;99.90;;;;;;5071827;28;20228;-51
2022/05/04 11:53:46;;;;;;;13.73;10.98;;;19.00;99.90;;;;;;5070292;28;20681;-52
2022/05/04 11:56:27;;;;;;;12.40;10.50;;;19.30;99.90;;;;;;5071314;28;20278;-52
2022/05/04 11:58:55;;;;;;;14.60;11.38;;;19.50;99.90;;;;;;5071147;28;20666;-51
2022/05/04 12:01:23;;;;;;;11.73;10.52;;;19.50;99.90;;;;;;5071445;28;20205;-52
2022/05/04 12:03:52;;;;;;;13.68;10.52;;;19.60;99.90;;;;;;5071234;28;20632;-52
2022/05/04 12:06:21;;;;;;;12.07;10.10;;;19.70;99.90;;;;;;5071614;28;20668;-53
2022/05/04 12:08:51;;;;;;;11.25;10.00;;;19.70;99.90;;;;;;5071709;28;20220;-52
2022/05/04 12:11:19;;;;;;;11.95;10.63;;;19.70;99.90;;;;;;5067554;28;20200;-52
2022/05/04 12:13:48;;;;;;;12.18;10.73;;;19.70;99.90;;;;;;5051977;28;20214;-52
2022/05/04 12:16:16;;;;;;;11.45;9.82;;;19.80;99.90;;;;;;5050543;28;20233;-52
2022/05/04 12:18:47;;;;;;;11.63;10.38;;;19.80;99.90;;;;;;5050895;28;20253;-52
2022/05/04 12:21:18;;;;;;;12.55;10.32;;;19.80;99.90;;;;;;5051489;28;20277;-52
2022/05/04 12:23:50;;;;;;;11.85;10.57;;;19.70;99.90;;;;;;5049494;28;20210;-52
2022/05/04 12:26:19;;;;;;;12.55;10.02;;;19.60;99.90;;;;;;5050932;28;20229;-52
2022/05/04 12:34:26;;;;;;;11.32;10.13;;;19.60;99.90;;;;;;5049748;28;20202;-52
2022/05/04 12:36:59;;;;;;;10.35;8.90;;;19.70;99.90;;;;;;5050563;28;20248;-52
2022/05/04 12:39:30;;;;;;;9.45;8.50;;;19.70;99.90;;;;;;5063150;28;20225;-52
2022/05/04 12:41:59;;;;;;;11.02;9.85;;;19.70;99.90;;;;;;5053666;28;20666;-52
2022/05/04 12:44:33;;;;;;;11.27;9.73;;;19.60;99.90;;;;;;5049504;28;20749;-53
2022/05/04 12:47:03;;;;;;;15.07;10.90;;;19.80;99.90;;;;;;5051149;28;20226;-52
2022/05/04 12:49:31;;;;;;;11.05;9.82;;;19.90;99.90;;;;;;5070017;28;20239;-51
2022/05/04 12:52:00;;;;;;;11.45;10.25;;;19.90;99.90;;;;;;5070051;28;20277;-52
2022/05/04 12:54:29;;;;;;;11.52;10.32;;;19.70;99.90;;;;;;5070363;28;20254;-52
2022/05/04 12:56:57;;;;;;;9.35;8.40;;;19.70;99.90;;;;;;5069758;28;20225;-52
2022/05/04 12:59:25;;;;;;;13.68;9.82;;;20.00;99.90;;;;;;5070549;28;20221;-52
2022/05/04 13:01:53;;;;;;;9.90;8.88;;;20.10;99.90;;;;;;5068949;28;20200;-52
2022/05/04 13:04:22;;;;;;;10.50;9.02;;;20.20;99.90;;;;;;5070626;28;20209;-52
2022/05/04 13:06:50;;;;;;;10.88;9.77;;;20.00;99.90;;;;;;5068682;28;20236;-52
2022/05/04 13:09:18;;;;;;;12.73;10.60;;;19.90;99.90;;;;;;5070143;28;20208;-52
2022/05/04 13:11:47;;;;;;;11.82;10.07;;;19.90;99.90;;;;;;5070248;28;20231;-52
2022/05/04 13:14:15;;;;;;;12.05;10.07;;;19.80;99.90;;;;;;5070516;28;20205;-52
2022/05/04 13:16:44;;;;;;;11.13;9.98;;;19.90;99.90;;;;;;5070470;28;20281;-51
2022/05/04 13:19:12;;;;;;;11.15;8.93;;;19.90;99.90;;;;;;5070141;28;20224;-51
2022/05/04 13:21:40;;;;;;;11.38;10.20;;;20.00;99.90;;;;;;5070740;28;20209;-51
2022/05/04 13:24:08;;;;;;;11.00;9.88;;;20.10;99.90;;;;;;5069632;28;20217;-52
2022/05/04 13:26:36;;;;;;;11.52;9.95;;;20.10;99.90;;;;;;5070238;28;20228;-51